createdAt,value
2019-04-14T00:04:09.763Z,17.60
2019-04-14T00:09:14.095Z,17.85
2019-04-14T00:14:16.381Z,17.00
2019-04-14T00:19:19.335Z,17.65
2019-04-14T00:24:21.197Z,18.98
2019-04-14T00:29:23.786Z,18.60
2019-04-14T00:34:44.184Z,19.20
2019-04-14T00:39:51.207Z,17.52
2019-04-14T00:44:55.864Z,19.67
2019-04-14T00:49:57.705Z,20.27
2019-04-14T00:54:59.261Z,20.55
2019-04-14T01:00:01.797Z,20.37
2019-04-14T01:05:06.614Z,19.80
2019-04-14T01:10:10.299Z,21.02
2019-04-14T01:15:13.584Z,21.10
2019-04-14T01:20:16.629Z,20.68
2019-04-14T01:25:19.372Z,20.50
2019-04-14T01:30:21.992Z,22.25
2019-04-14T01:35:23.450Z,22.45
2019-04-14T01:40:24.964Z,20.72
2019-04-14T01:45:27.502Z,21.07
2019-04-14T01:50:34.657Z,21.68
2019-04-14T01:55:54.876Z,21.33
2019-04-14T02:01:01.904Z,23.00
2019-04-14T02:06:04.787Z,22.40
2019-04-14T02:11:07.334Z,22.27
2019-04-14T02:16:21.042Z,24.52
2019-04-14T02:21:12.846Z,24.20
2019-04-14T02:26:15.483Z,22.77
2019-04-14T02:31:39.212Z,24.90
2019-04-14T02:36:48.374Z,22.90
2019-04-14T02:46:59.985Z,25.37
2019-04-14T02:51:58.503Z,22.80
2019-04-14T02:57:01.327Z,24.55
2019-04-14T03:12:09.731Z,24.15
2019-04-14T03:17:33.358Z,26.50
2019-04-14T03:22:42.290Z,26.50
2019-04-14T03:27:48.192Z,24.20
2019-04-14T03:37:56.649Z,26.02
2019-04-14T03:42:59.663Z,24.63
2019-04-14T03:48:31.812Z,26.02
2019-04-14T03:53:09.961Z,28.38
2019-04-14T03:57:37.598Z,25.40
2019-04-14T04:02:40.132Z,27.98
2019-04-14T04:07:43.157Z,26.05
2019-04-14T04:12:44.915Z,28.62
2019-04-14T04:17:49.349Z,28.30
2019-04-14T04:28:17.334Z,29.07
2019-04-14T04:33:26.895Z,28.67
2019-04-14T04:38:36.109Z,25.52
2019-04-14T04:43:38.692Z,26.80
2019-04-14T04:48:41.426Z,25.12
2019-04-14T04:53:44.008Z,28.05
2019-04-14T04:58:45.693Z,28.32
2019-04-14T05:09:18.832Z,29.32
2019-04-14T05:14:22.326Z,28.20
2019-04-14T05:19:30.316Z,29.12
2019-04-14T05:24:27.116Z,27.02
2019-04-14T05:29:29.656Z,30.27
2019-04-14T05:34:32.550Z,30.10
2019-04-14T05:39:35.365Z,30.43
2019-04-14T05:44:57.832Z,29.70
2019-04-14T05:49:59.429Z,31.25
2019-04-14T05:55:00.892Z,32.33
2019-04-14T06:00:08.057Z,29.32
2019-04-14T06:05:11.399Z,29.90
2019-04-14T06:10:13.646Z,29.95
2019-04-14T06:15:15.374Z,32.23
2019-04-14T06:20:16.974Z,31.00
2019-04-14T06:25:18.265Z,31.10
2019-04-14T06:30:33.455Z,29.30
2019-04-14T06:35:53.893Z,29.07
2019-04-14T06:40:57.379Z,28.60
2019-04-14T06:45:59.229Z,30.23
2019-04-14T06:51:00.669Z,29.55
2019-04-14T06:56:20.635Z,28.52
2019-04-14T07:01:22.149Z,27.95
2019-04-14T07:06:23.563Z,30.48
2019-04-14T07:11:24.993Z,29.63
2019-04-14T07:16:26.485Z,28.40
2019-04-14T07:21:27.920Z,27.35
2019-04-14T07:26:29.442Z,26.00
2019-04-14T07:31:35.346Z,26.95
2019-04-14T07:36:55.568Z,24.77
2019-04-14T07:41:59.130Z,24.82
2019-04-14T07:47:03.157Z,24.70
2019-04-14T07:57:44.505Z,25.40
2019-04-14T08:02:47.951Z,24.75
2019-04-14T08:07:50.585Z,25.85
2019-04-14T08:12:52.027Z,25.27
2019-04-14T08:17:54.733Z,25.02
2019-04-14T08:22:58.472Z,23.90
2019-04-14T08:28:00.005Z,24.18
2019-04-14T08:33:01.430Z,24.02
2019-04-14T08:38:03.286Z,23.25
2019-04-14T08:43:19.965Z,22.95
2019-04-14T08:48:32.439Z,22.62
2019-04-14T08:53:35.817Z,17.98
2019-04-14T08:58:55.235Z,24.07
2019-04-14T09:04:16.907Z,22.98
2019-04-14T09:09:24.991Z,21.57
2019-04-14T09:14:27.955Z,21.00
2019-04-14T09:19:29.378Z,21.82
2019-04-14T09:24:30.863Z,21.05
2019-04-14T09:29:32.316Z,20.25
2019-04-14T09:34:34.115Z,21.60
2019-04-14T09:39:39.931Z,20.92
2019-04-14T09:44:43.314Z,20.05
2019-04-14T09:49:45.332Z,20.15
2019-04-14T09:54:47.003Z,20.77
2019-04-14T09:59:48.639Z,20.52
2019-04-14T10:04:50.209Z,20.72
2019-04-14T10:09:53.790Z,20.52
2019-04-14T10:14:55.298Z,20.80
2019-04-14T10:19:56.916Z,20.37
2019-04-14T10:24:58.648Z,20.23
2019-04-14T10:30:00.112Z,20.82
2019-04-14T10:35:01.746Z,19.65
2019-04-14T10:40:06.110Z,19.40
2019-04-14T10:45:07.851Z,19.90
2019-04-14T10:50:09.947Z,20.17
2019-04-14T10:55:13.228Z,19.02
2019-04-14T11:00:19.181Z,19.50
2019-04-14T11:05:21.120Z,19.48
2019-04-14T11:10:24.878Z,17.85
2019-04-14T11:15:26.497Z,17.57
2019-04-14T11:20:28.063Z,18.48
2019-04-14T11:25:29.641Z,18.70
2019-04-14T11:30:30.987Z,17.45
2019-04-14T11:35:38.852Z,17.95
2019-04-14T11:40:42.087Z,17.87
2019-04-14T11:45:43.525Z,16.32
2019-04-14T11:50:44.838Z,17.62
2019-04-14T11:55:46.360Z,15.85
2019-04-14T12:01:06.902Z,16.32
2019-04-14T12:06:26.950Z,17.52
2019-04-14T12:11:29.215Z,16.37
2019-04-14T12:16:32.588Z,16.12
2019-04-14T12:21:34.366Z,15.80
2019-04-14T12:26:36.174Z,16.35
2019-04-14T12:31:39.632Z,15.32
2019-04-14T12:36:41.313Z,12.73
2019-04-14T12:41:46.052Z,15.08
2019-04-14T12:46:49.936Z,14.33
2019-04-14T12:51:55.307Z,15.48
2019-04-14T12:57:16.069Z,16.35
2019-04-14T13:02:22.221Z,14.65
2019-04-14T13:07:23.747Z,15.53
2019-04-14T13:12:26.833Z,14.68
2019-04-14T13:17:46.878Z,15.98
2019-04-14T13:22:48.317Z,15.30
2019-04-14T13:27:50.755Z,15.35
2019-04-14T13:32:52.195Z,14.25
2019-04-14T13:37:53.678Z,13.80
2019-04-14T13:42:55.102Z,12.47
2019-04-14T13:47:56.551Z,14.65
2019-04-14T13:52:58.532Z,15.55
2019-04-14T13:58:00.055Z,14.73
2019-04-14T14:03:02.029Z,15.18
2019-04-14T14:08:03.707Z,14.20
2019-04-14T14:13:07.413Z,14.38
2019-04-14T14:18:29.646Z,14.45
2019-04-14T14:23:49.821Z,15.15
2019-04-14T14:28:51.384Z,13.78
2019-04-14T14:33:55.811Z,14.58
2019-04-14T14:38:57.257Z,14.05
2019-04-14T14:44:00.875Z,15.32
2019-04-14T14:49:10.373Z,14.18
2019-04-14T14:54:11.892Z,14.05
2019-04-14T14:59:13.666Z,12.45
2019-04-14T15:04:15.102Z,12.05
2019-04-14T15:09:17.007Z,14.03
2019-04-14T15:14:20.464Z,13.18
2019-04-14T15:19:22.284Z,12.10
2019-04-14T15:24:42.859Z,13.68
2019-04-14T15:29:44.379Z,13.40
2019-04-14T15:35:05.689Z,12.88
2019-04-14T15:40:07.859Z,12.60
2019-04-14T15:45:10.602Z,13.38
2019-04-14T15:50:12.152Z,13.35
2019-04-14T15:55:15.415Z,11.88
2019-04-14T16:00:30.747Z,12.75
2019-04-14T16:05:34.142Z,13.15
2019-04-14T16:10:37.483Z,13.20
2019-04-14T16:15:47.217Z,13.05
2019-04-14T16:20:48.711Z,12.68
2019-04-14T16:26:08.772Z,10.55
2019-04-14T16:31:28.827Z,12.07
2019-04-14T16:36:30.784Z,12.55
2019-04-14T16:41:32.398Z,12.60
2019-04-14T16:46:34.343Z,11.80
2019-04-14T16:51:43.701Z,12.85
2019-04-14T16:57:01.837Z,12.37
2019-04-14T17:02:10.831Z,11.88
2019-04-14T17:07:08.462Z,11.68
2019-04-14T17:12:10.322Z,11.57
2019-04-14T17:17:19.584Z,11.80
2019-04-14T17:22:26.189Z,11.28
2019-04-14T17:27:29.811Z,12.45
2019-04-14T17:32:46.996Z,11.88
2019-04-14T17:37:53.511Z,11.90
2019-04-14T17:43:01.586Z,12.13
2019-04-14T17:48:08.712Z,12.37
2019-04-14T17:53:13.576Z,12.37
2019-04-14T17:58:20.399Z,12.58
2019-04-14T18:03:40.549Z,12.70
2019-04-14T18:08:59.054Z,13.58
2019-04-14T18:14:19.285Z,12.90
2019-04-14T18:19:32.131Z,13.60
2019-04-14T18:24:42.282Z,13.18
2019-04-14T18:29:42.169Z,11.73
2019-04-14T18:35:01.884Z,12.37
2019-04-14T18:40:14.870Z,13.30
2019-04-14T18:45:18.599Z,13.32
2019-04-14T18:50:24.976Z,13.32
2019-04-14T18:55:28.456Z,13.88
2019-04-14T19:00:32.204Z,13.75
2019-04-14T19:05:33.752Z,13.72
2019-04-14T19:10:35.380Z,13.70
2019-04-14T19:15:44.941Z,13.55
2019-04-14T19:20:48.479Z,13.90
2019-04-14T19:25:50.136Z,13.58
2019-04-14T19:30:52.948Z,12.98
2019-04-14T19:35:54.519Z,13.30
2019-04-14T19:40:56.085Z,13.88
2019-04-14T19:46:07.411Z,13.43
2019-04-14T19:51:10.034Z,13.22
2019-04-14T19:56:11.581Z,13.62
2019-04-14T20:01:13.359Z,13.65
2019-04-14T20:06:14.786Z,13.22
2019-04-14T20:11:16.343Z,13.98
2019-04-14T20:16:32.392Z,13.90
2019-04-14T20:21:38.833Z,13.20
2019-04-14T20:26:48.107Z,13.65
2019-04-14T20:31:51.587Z,14.05
2019-04-14T20:36:53.012Z,14.05
2019-04-14T20:41:54.583Z,12.53
2019-04-14T20:46:56.165Z,15.20
2019-04-14T20:51:57.800Z,13.40
2019-04-14T20:56:59.337Z,13.48
2019-04-14T21:02:19.587Z,14.55
2019-04-14T21:07:39.356Z,13.60
2019-04-14T21:12:45.821Z,14.25
2019-04-14T21:18:05.922Z,13.05
2019-04-14T21:23:12.311Z,13.00
2019-04-14T21:28:24.633Z,15.23
2019-04-14T21:33:39.074Z,16.05
2019-04-14T21:39:17.507Z,14.85
2019-04-14T21:44:18.905Z,13.35
2019-04-14T21:49:20.313Z,14.55
2019-04-14T21:54:21.824Z,14.38
2019-04-14T21:59:31.368Z,14.43
2019-04-14T22:04:40.786Z,14.65
2019-04-14T22:09:42.333Z,13.70
2019-04-14T22:20:05.079Z,14.58
2019-04-14T22:25:06.702Z,13.98
2019-04-14T22:30:08.877Z,14.78
2019-04-14T22:35:10.901Z,14.05
2019-04-14T22:40:13.542Z,13.95
2019-04-14T22:45:15.638Z,14.47
2019-04-14T22:50:17.134Z,15.60
2019-04-14T22:55:19.456Z,15.15
2019-04-14T23:00:42.245Z,15.90
2019-04-14T23:05:51.694Z,14.60
2019-04-14T23:11:13.539Z,15.35
2019-04-14T23:16:23.295Z,15.75
2019-04-14T23:21:35.778Z,16.95
2019-04-14T23:26:51.437Z,16.20
2019-04-14T23:31:42.574Z,16.02
2019-04-14T23:36:44.317Z,16.55
2019-04-14T23:41:46.094Z,20.55
2019-04-14T23:46:47.833Z,55.43
2019-04-14T23:51:49.583Z,44.35
2019-04-14T23:57:04.416Z,24.65
